Time;durP1;ratioP1;P1;durP2;ratioP2;P2;SDS_P1;SDS_P2;PMS_P1;PMS_P2;Temp;Humidity;BMP_temperature;BMP_pressure;BME280_temperature;BME280_humidity;BME280_pressure;Samples;Min_cycle;Max_cycle;Signal;HPM_P1;HPM_P2
2022/12/25 00:02:14;;;;;;;;;3.00;3.00;;;;;8.21;85.61;99801.81;5035913;28;8836;-60
2022/12/25 00:04:42;;;;;;;;;1.00;1.00;;;;;8.20;85.41;99815.19;5034792;28;8845;-60
2022/12/25 00:07:10;;;;;;;;;3.75;3.00;;;;;8.16;85.75;99808.38;5035831;28;8977;-60
2022/12/25 00:09:38;;;;;;;;;3.00;3.00;;;;;8.14;85.95;99811.13;5035843;28;8838;-59
2022/12/25 00:12:06;;;;;;;;;3.50;3.50;;;;;8.15;86.07;99822.59;5035802;28;8848;-60
2022/12/25 00:14:34;;;;;;;;;4.00;4.00;;;;;8.17;85.67;99818.88;5035460;28;8975;-60
2022/12/25 00:17:02;;;;;;;;;3.50;3.00;;;;;8.17;85.67;99825.97;5036203;28;8992;-56
2022/12/25 00:19:30;;;;;;;;;1.00;1.00;;;;;8.14;85.79;99821.75;5035277;28;8850;-58
2022/12/25 00:21:57;;;;;;;;;0.50;0.50;;;;;8.14;85.68;99827.03;5035970;28;8836;-60
2022/12/25 00:24:25;;;;;;;;;3.50;3.00;;;;;8.14;85.55;99829.69;5035861;28;8852;-58
2022/12/25 00:26:53;;;;;;;;;4.00;3.00;;;;;8.13;85.27;99825.34;5036229;28;9585;-59
2022/12/25 00:29:21;;;;;;;;;4.00;3.50;;;;;8.11;85.89;99827.28;5035210;28;8809;-59
2022/12/25 00:31:49;;;;;;;;;6.75;6.00;;;;;8.12;85.94;99831.63;5035634;28;8813;-57
2022/12/25 00:34:17;;;;;;;;;3.00;3.00;;;;;8.17;85.76;99837.44;5035932;28;8907;-60
2022/12/25 00:36:45;;;;;;;;;3.50;3.00;;;;;8.20;85.21;99847.03;5035985;28;9522;-61
2022/12/25 00:39:12;;;;;;;;;3.00;3.00;;;;;8.26;85.44;99836.81;5035819;28;8821;-58
2022/12/25 00:44:25;;;;;;;;;1.00;1.00;;;;;8.42;84.98;99842.72;5035584;28;8841;-58
2022/12/25 00:46:53;;;;;;;;;1.50;0.50;;;;;8.49;85.03;99837.78;5035235;28;8841;-60
2022/12/25 00:49:21;;;;;;;;;3.00;3.00;;;;;8.54;85.09;99835.66;5035610;28;8918;-58
2022/12/25 00:51:49;;;;;;;;;1.00;1.00;;;;;8.59;84.77;99829.06;5037648;28;8909;-58
2022/12/25 00:54:17;;;;;;;;;1.50;1.50;;;;;8.66;84.67;99835.59;5039539;28;8843;-60
2022/12/25 00:56:44;;;;;;;;;2.00;0.75;;;;;8.73;85.06;99822.75;5039501;28;8816;-60
2022/12/25 00:59:12;;;;;;;;;1.00;1.00;;;;;8.78;84.62;99831.19;5039151;28;8805;-60
2022/12/25 01:01:40;;;;;;;;;1.50;1.50;;;;;8.81;84.36;99826.50;5039792;28;8857;-58
2022/12/25 01:04:08;;;;;;;;;4.00;3.00;;;;;8.83;84.23;99821.91;5039528;28;8828;-58
2022/12/25 01:06:36;;;;;;;;;1.00;1.00;;;;;8.87;84.41;99822.53;5039354;28;8832;-58
2022/12/25 01:11:49;;;;;;;;;4.50;4.00;;;;;8.92;83.94;99815.94;5038639;28;8825;-60
2022/12/25 01:14:17;;;;;;;;;0.50;0.50;;;;;8.94;84.22;99821.13;5038802;28;8856;-60
2022/12/25 01:16:45;;;;;;;;;3.00;3.00;;;;;8.92;84.28;99818.59;5037767;28;8845;-58
2022/12/25 01:19:13;;;;;;;;;3.50;3.00;;;;;8.94;84.54;99826.44;5037796;28;8959;-58
2022/12/25 01:21:40;;;;;;;;;1.00;1.00;;;;;8.95;84.13;99821.03;5038101;28;8848;-58
2022/12/25 01:24:08;;;;;;;;;3.50;3.25;;;;;8.98;84.40;99812.81;5038270;28;8887;-58
2022/12/25 01:26:36;;;;;;;;;1.00;1.00;;;;;9.03;83.90;99808.00;5037662;28;8849;-58
2022/12/25 01:29:03;;;;;;;;;3.50;3.00;;;;;9.08;84.26;99816.50;5038285;28;8938;-58
2022/12/25 01:31:31;;;;;;;;;1.00;1.00;;;;;9.12;84.35;99812.63;5038829;28;8844;-58
2022/12/25 01:33:59;;;;;;;;;2.50;2.50;;;;;9.16;83.91;99815.91;5039399;28;9609;-59
2022/12/25 01:36:28;;;;;;;;;1.00;1.00;;;;;9.21;83.83;99821.72;5038854;28;8837;-58
2022/12/25 01:38:56;;;;;;;;;1.50;1.00;;;;;9.25;84.22;99826.69;5038659;28;8836;-58
2022/12/25 01:41:23;;;;;;;;;4.00;4.00;;;;;9.31;83.42;99823.56;5038151;28;8819;-60
2022/12/25 01:43:51;;;;;;;;;1.50;1.50;;;;;9.37;83.69;99816.91;5038207;28;8830;-59
2022/12/25 01:46:18;;;;;;;;;1.50;1.50;;;;;9.41;83.95;99824.53;5038084;28;8851;-60
2022/12/25 01:48:46;;;;;;;;;3.00;1.50;;;;;9.44;84.08;99826.97;5038091;28;8864;-59
2022/12/25 01:51:14;;;;;;;;;1.00;1.00;;;;;9.48;83.48;99823.09;5038639;28;8867;-58
2022/12/25 01:53:42;;;;;;;;;3.25;2.50;;;;;9.53;83.63;99823.59;5038272;28;8843;-59
2022/12/25 01:56:09;;;;;;;;;2.25;1.75;;;;;9.57;83.79;99814.41;5038123;28;8842;-57
2022/12/25 01:58:37;;;;;;;;;3.00;3.00;;;;;9.60;83.33;99814.19;5038141;28;8852;-60
2022/12/25 02:01:05;;;;;;;;;1.50;1.50;;;;;9.65;83.48;99805.84;5038412;28;8844;-58
2022/12/25 02:03:33;;;;;;;;;2.00;1.00;;;;;9.68;83.39;99792.31;5037421;28;8867;-60
2022/12/25 02:06:01;;;;;;;;;1.00;1.00;;;;;9.69;83.38;99786.88;5038249;28;8871;-60
2022/12/25 02:08:29;;;;;;;;;0.00;0.00;;;;;9.72;83.59;99783.13;5038309;28;8844;-59
2022/12/25 02:10:56;;;;;;;;;2.00;1.00;;;;;9.73;83.58;99787.50;5037736;28;8840;-57
2022/12/25 02:13:24;;;;;;;;;3.00;3.00;;;;;9.74;83.59;99790.03;5037844;28;8809;-60
2022/12/25 02:15:52;;;;;;;;;0.00;0.00;;;;;9.75;83.64;99797.03;5038157;28;8816;-59
2022/12/25 02:18:20;;;;;;;;;3.50;3.25;;;;;9.79;83.53;99806.47;5038003;28;8849;-60
2022/12/25 02:20:47;;;;;;;;;3.25;3.00;;;;;9.83;84.15;99802.59;5037948;28;8875;-58
2022/12/25 02:23:15;;;;;;;;;1.00;1.00;;;;;9.88;83.70;99796.91;5037619;28;8851;-60
2022/12/25 02:25:43;;;;;;;;;1.00;1.00;;;;;9.92;83.40;99796.56;5037172;28;9502;-59
2022/12/25 02:28:11;;;;;;;;;1.00;1.00;;;;;9.95;83.62;99800.78;5037863;28;8840;-60
2022/12/25 02:30:38;;;;;;;;;3.00;0.50;;;;;9.99;83.53;99810.19;5037632;28;8829;-59
2022/12/25 02:35:48;;;;;;;;;3.00;3.00;;;;;10.03;83.38;99814.34;5005016;28;8955;-60
2022/12/25 02:38:16;;;;;;;;;0.00;0.00;;;;;10.05;82.95;99815.94;5036819;28;8841;-58
2022/12/25 02:40:42;;;;;;;;;3.00;3.00;;;;;10.06;83.45;99817.63;5037465;28;8850;-58
2022/12/25 03:07:53;;;;;;;;;0.00;0.00;;;;;10.20;83.17;99797.88;5004073;28;8845;-59
2022/12/25 03:13:07;;;;;;;;;1.00;1.00;;;;;10.22;83.33;99802.13;5037046;28;8828;-58
2022/12/25 03:18:34;;;;;;;;;2.50;1.50;;;;;10.24;83.36;99800.16;4975878;28;9286;-61
2022/12/25 03:32:00;;;;;;;;;1.00;1.00;;;;;10.28;83.47;99800.78;5036311;28;9548;-60
2022/12/25 04:38:21;;;;;;;;;1.00;0.50;;;;;10.44;83.20;99772.78;5035712;28;8848;-59
2022/12/25 04:40:48;;;;;;;;;2.00;2.00;;;;;10.43;83.45;99762.25;5035846;28;8832;-60
2022/12/25 04:43:16;;;;;;;;;1.00;1.00;;;;;10.42;83.71;99755.25;5035642;28;8845;-60
2022/12/25 04:45:43;;;;;;;;;1.00;1.00;;;;;10.43;83.11;99752.47;5035910;28;9507;-60
2022/12/25 04:48:11;;;;;;;;;1.00;1.00;;;;;10.42;83.85;99761.44;5035625;28;8883;-57
2022/12/25 04:50:39;;;;;;;;;0.25;0.25;;;;;10.41;83.44;99762.38;5034602;28;8841;-60
2022/12/25 04:53:07;;;;;;;;;1.00;1.00;;;;;10.42;83.82;99765.91;5035329;28;8813;-60
2022/12/25 04:55:34;;;;;;;;;1.50;1.00;;;;;10.42;83.78;99773.88;5035898;28;8836;-59
2022/12/25 04:58:02;;;;;;;;;1.00;1.00;;;;;10.44;83.64;99762.16;5035544;28;8832;-60
2022/12/25 05:00:29;;;;;;;;;1.00;1.00;;;;;10.45;83.95;99765.63;5035427;28;8824;-60
2022/12/25 05:02:58;;;;;;;;;4.00;4.00;;;;;10.46;83.74;99760.19;5035458;28;8849;-59
2022/12/25 05:05:25;;;;;;;;;3.00;2.00;;;;;10.45;83.57;99753.19;5035319;28;8856;-60
2022/12/25 05:07:53;;;;;;;;;2.50;1.00;;;;;10.44;83.38;99748.84;5035389;28;8836;-60
2022/12/25 05:10:21;;;;;;;;;3.00;1.00;;;;;10.42;84.04;99745.47;5035305;28;8817;-58
2022/12/25 05:12:49;;;;;;;;;1.50;1.00;;;;;10.37;83.62;99729.03;5035165;28;8922;-59
2022/12/25 05:15:17;;;;;;;;;2.50;2.50;;;;;10.30;83.58;99727.81;5035223;28;8875;-60
2022/12/25 05:17:44;;;;;;;;;0.00;0.00;;;;;10.24;84.10;99730.16;5034916;28;9510;-58
2022/12/25 05:20:12;;;;;;;;;0.00;0.00;;;;;10.18;84.43;99731.47;5035430;28;9521;-59
2022/12/25 05:22:40;;;;;;;;;1.50;1.50;;;;;10.13;84.27;99743.47;5033384;28;9547;-60
2022/12/25 05:25:07;;;;;;;;;0.75;0.75;;;;;10.08;84.39;99741.19;5034909;28;8831;-60
2022/12/25 05:27:35;;;;;;;;;1.00;0.50;;;;;10.06;84.80;99735.16;5034991;28;8832;-59
2022/12/25 05:30:03;;;;;;;;;0.00;0.00;;;;;10.03;84.40;99734.56;5035009;28;9541;-57
2022/12/25 05:32:31;;;;;;;;;0.75;0.75;;;;;9.99;84.63;99723.28;5034962;28;8848;-60
2022/12/25 05:34:59;;;;;;;;;1.00;0.25;;;;;9.96;84.71;99720.84;5034912;28;9548;-60
2022/12/25 05:37:27;;;;;;;;;1.00;0.75;;;;;9.93;84.47;99731.75;5037023;28;8899;-58
2022/12/25 05:39:55;;;;;;;;;1.00;1.00;;;;;9.91;84.60;99727.50;5038961;28;8914;-59
2022/12/25 05:42:22;;;;;;;;;0.25;0.25;;;;;9.87;84.71;99724.25;5038890;28;8839;-57
2022/12/25 05:44:50;;;;;;;;;1.00;0.00;;;;;9.84;85.07;99718.34;5038792;28;8844;-59
2022/12/25 05:47:18;;;;;;;;;1.00;1.00;;;;;9.79;84.95;99724.03;5038381;28;8906;-58
2022/12/25 05:49:45;;;;;;;;;0.00;0.00;;;;;9.75;84.93;99729.72;5038203;28;8841;-58
2022/12/25 05:52:13;;;;;;;;;0.50;0.50;;;;;9.70;85.04;99719.44;5038203;28;8848;-57
2022/12/25 05:54:41;;;;;;;;;1.00;1.00;;;;;9.69;85.19;99722.22;5038370;28;8898;-59
2022/12/25 05:57:09;;;;;;;;;1.00;1.00;;;;;9.65;85.15;99721.63;5038093;28;8853;-58
2022/12/25 05:59:37;;;;;;;;;2.00;1.00;;;;;9.63;85.41;99718.25;5038256;28;8849;-60
2022/12/25 06:02:04;;;;;;;;;0.75;0.75;;;;;9.63;85.69;99712.91;5037857;28;8837;-58
2022/12/25 06:04:33;;;;;;;;;0.00;0.00;;;;;9.62;85.41;99708.56;5037955;28;8864;-57
2022/12/25 06:07:00;;;;;;;;;0.50;0.50;;;;;9.63;85.38;99704.94;5038063;28;8820;-59
2022/12/25 06:09:28;;;;;;;;;1.00;0.50;;;;;9.61;85.40;99706.88;5038051;28;8821;-59
2022/12/25 06:11:55;;;;;;;;;0.25;0.25;;;;;9.61;85.59;99703.38;5038237;28;9515;-59
2022/12/25 06:14:23;;;;;;;;;0.25;0.00;;;;;9.61;85.65;99701.56;5038009;28;9499;-57
2022/12/25 06:16:51;;;;;;;;;1.00;1.00;;;;;9.63;85.49;99706.78;5038123;28;8828;-59
2022/12/25 06:19:19;;;;;;;;;2.00;1.50;;;;;9.63;85.52;99718.25;5037912;28;8843;-59
2022/12/25 06:21:47;;;;;;;;;1.00;1.00;;;;;9.60;85.42;99715.84;5037948;28;8844;-58
2022/12/25 06:24:14;;;;;;;;;0.00;0.00;;;;;9.58;85.43;99714.25;5037981;28;8840;-58
2022/12/25 06:26:47;;;;;;;;;1.50;1.00;;;;;9.56;85.17;99721.53;5038090;28;8832;-60
2022/12/25 06:29:15;;;;;;;;;0.00;0.00;;;;;9.56;85.88;99719.69;5038065;28;9495;-59
2022/12/25 06:31:43;;;;;;;;;0.75;0.75;;;;;9.56;85.73;99703.75;5038054;28;8828;-59
2022/12/25 06:34:15;;;;;;;;;0.00;0.00;;;;;9.55;85.84;99710.03;5037439;28;8829;-59
2022/12/25 06:36:42;;;;;;;;;0.75;0.75;;;;;9.53;85.47;99695.16;5037298;28;9506;-58
2022/12/25 06:39:10;;;;;;;;;1.00;1.00;;;;;9.50;85.67;99698.91;5037931;28;9523;-60
2022/12/25 06:41:39;;;;;;;;;0.00;0.00;;;;;9.48;85.78;99695.53;5037332;28;8828;-59
2022/12/25 06:44:06;;;;;;;;;0.00;0.00;;;;;9.44;85.94;99688.78;5036932;28;9499;-58
2022/12/25 06:46:34;;;;;;;;;0.00;0.00;;;;;9.40;86.11;99684.66;5036302;28;9620;-60
2022/12/25 06:49:02;;;;;;;;;0.75;0.75;;;;;9.36;85.57;99661.97;5035575;28;8843;-58
2022/12/25 06:51:29;;;;;;;;;0.00;0.00;;;;;9.32;86.06;99663.16;5035878;28;8873;-58
2022/12/25 06:53:57;;;;;;;;;1.00;0.75;;;;;9.27;86.26;99649.38;5036783;28;8906;-58
2022/12/25 06:56:25;;;;;;;;;0.00;0.00;;;;;9.26;86.02;99650.34;5036743;28;8824;-62
2022/12/25 06:58:53;;;;;;;;;1.00;1.00;;;;;9.22;86.12;99648.94;5037203;28;8894;-58
2022/12/25 07:01:21;;;;;;;;;1.00;1.00;;;;;9.23;86.19;99650.63;5037133;28;8840;-58
2022/12/25 07:03:50;;;;;;;;;0.25;0.25;;;;;9.25;85.92;99664.63;5037163;28;8871;-58
2022/12/25 07:06:18;;;;;;;;;0.00;0.00;;;;;9.22;86.09;99664.88;5036788;28;8858;-60
2022/12/25 07:08:46;;;;;;;;;0.00;0.00;;;;;9.20;86.08;99661.47;5036731;28;8833;-59
2022/12/25 07:11:13;;;;;;;;;0.00;0.00;;;;;9.16;86.12;99654.72;5036741;28;8836;-59
2022/12/25 07:13:41;;;;;;;;;0.00;0.00;;;;;9.10;86.56;99660.50;5036946;28;8825;-60
2022/12/25 07:16:09;;;;;;;;;0.00;0.00;;;;;9.06;85.76;99661.72;5036787;28;8832;-57
2022/12/25 07:18:37;;;;;;;;;0.00;0.00;;;;;9.04;86.54;99666.28;5036711;28;8836;-58
2022/12/25 07:21:05;;;;;;;;;0.75;0.00;;;;;8.99;86.41;99655.19;5036860;28;8962;-60
2022/12/25 07:23:32;;;;;;;;;0.25;0.00;;;;;8.95;86.25;99651.06;5037052;28;9585;-59
2022/12/25 07:26:00;;;;;;;;;1.00;0.00;;;;;8.92;86.48;99643.34;5036447;28;8849;-60
2022/12/25 07:28:28;;;;;;;;;0.00;0.00;;;;;8.90;86.43;99637.28;5037150;28;9529;-60
2022/12/25 07:30:56;;;;;;;;;0.00;0.00;;;;;8.89;86.38;99630.28;5036799;28;8836;-58
2022/12/25 07:33:23;;;;;;;;;0.00;0.00;;;;;8.90;86.45;99626.66;5035835;28;8835;-57
2022/12/25 07:35:51;;;;;;;;;1.00;0.75;;;;;8.89;86.39;99614.38;5036876;28;8840;-58
2022/12/25 07:38:19;;;;;;;;;1.00;1.00;;;;;8.89;86.27;99609.06;5036778;28;8851;-59
2022/12/25 07:40:46;;;;;;;;;3.00;1.00;;;;;8.91;86.30;99615.13;5036754;28;8836;-59
2022/12/25 07:43:14;;;;;;;;;2.00;1.00;;;;;8.97;86.12;99622.56;5036953;28;8851;-57
2022/12/25 07:45:42;;;;;;;;;0.25;0.25;;;;;9.03;86.33;99635.38;5036631;28;8851;-59
2022/12/25 07:48:10;;;;;;;;;1.00;1.00;;;;;9.09;85.89;99636.72;5036408;28;8870;-60
2022/12/25 07:50:43;;;;;;;;;0.50;0.50;;;;;9.13;86.21;99620.41;5035904;28;8827;-57
2022/12/25 07:53:10;;;;;;;;;1.00;1.00;;;;;9.17;85.97;99597.97;5036002;28;8828;-60
2022/12/25 07:55:39;;;;;;;;;2.00;0.50;;;;;9.20;85.60;99602.19;5035982;28;8830;-58
2022/12/25 07:58:06;;;;;;;;;0.00;0.00;;;;;9.23;85.67;99601.94;5035751;28;8852;-57
2022/12/25 08:00:34;;;;;;;;;1.00;0.25;;;;;9.26;85.25;99609.69;5034950;28;8830;-60
2022/12/25 08:03:02;;;;;;;;;0.00;0.00;;;;;9.31;85.38;99608.34;5036408;28;9604;-60
2022/12/25 08:05:29;;;;;;;;;0.00;0.00;;;;;9.34;85.36;99600.09;5036091;28;8820;-60
2022/12/25 08:07:59;;;;;;;;;1.00;1.00;;;;;9.39;85.53;99594.44;5035649;28;8813;-60
2022/12/25 08:10:26;;;;;;;;;0.50;0.00;;;;;9.43;85.28;99582.59;5035725;28;8833;-59
2022/12/25 08:12:54;;;;;;;;;0.00;0.00;;;;;9.48;85.10;99577.75;5035972;28;8820;-58
2022/12/25 08:15:22;;;;;;;;;1.00;0.25;;;;;9.52;85.03;99584.50;5036098;28;8828;-59
2022/12/25 08:17:49;;;;;;;;;1.00;1.00;;;;;9.58;85.48;99576.03;5036044;28;8853;-58
2022/12/25 08:20:17;;;;;;;;;0.50;0.00;;;;;9.65;84.93;99567.41;5036025;28;8867;-59
2022/12/25 08:22:45;;;;;;;;;1.00;1.00;;;;;9.72;84.68;99565.13;5036172;28;8821;-59
2022/12/25 08:25:14;;;;;;;;;0.00;0.00;;;;;9.78;85.06;99573.44;5035861;28;8832;-60
2022/12/25 08:27:42;;;;;;;;;0.00;0.00;;;;;9.82;84.42;99574.88;5035705;28;8829;-58
2022/12/25 08:30:10;;;;;;;;;0.00;0.00;;;;;9.88;84.76;99592.97;5035809;28;8871;-57
2022/12/25 08:32:38;;;;;;;;;0.00;0.00;;;;;9.92;84.32;99596.22;5035555;28;8827;-58
2022/12/25 08:35:06;;;;;;;;;0.00;0.00;;;;;9.96;84.72;99593.19;5035808;28;8837;-59
2022/12/25 08:37:34;;;;;;;;;0.00;0.00;;;;;10.01;84.48;99590.16;5036158;28;9518;-57
2022/12/25 08:40:01;;;;;;;;;0.00;0.00;;;;;10.05;84.45;99588.97;5035523;28;8857;-58
2022/12/25 08:42:29;;;;;;;;;0.25;0.25;;;;;10.09;84.44;99585.09;5035123;28;8851;-60
2022/12/25 08:44:57;;;;;;;;;0.50;0.50;;;;;10.10;83.74;99576.94;5035398;28;8828;-58
2022/12/25 08:47:25;;;;;;;;;1.00;1.00;;;;;10.14;84.11;99559.78;5036308;28;8837;-57
2022/12/25 08:49:53;;;;;;;;;1.00;1.00;;;;;10.19;84.34;99546.94;5035277;28;9585;-57
2022/12/25 08:52:20;;;;;;;;;3.25;2.50;;;;;10.26;83.98;99563.22;5035318;28;8864;-60
2022/12/25 08:54:48;;;;;;;;;1.00;1.00;;;;;10.31;84.17;99566.34;5035060;28;8854;-60
2022/12/25 08:57:16;;;;;;;;;1.00;1.00;;;;;10.33;83.36;99559.91;5033862;28;8812;-59
2022/12/25 08:59:44;;;;;;;;;0.25;0.25;;;;;10.38;83.87;99557.69;5033923;28;8866;-59
2022/12/25 09:02:12;;;;;;;;;0.00;0.00;;;;;10.41;83.79;99546.78;5034036;28;8859;-58
2022/12/25 09:04:39;;;;;;;;;0.25;0.00;;;;;10.43;83.93;99538.66;5034398;28;8852;-59
2022/12/25 09:07:07;;;;;;;;;1.50;1.50;;;;;10.46;83.39;99546.41;5034812;28;8847;-57
2022/12/25 09:09:36;;;;;;;;;1.00;0.00;;;;;10.47;83.58;99575.53;5035147;28;8852;-59
2022/12/25 09:12:04;;;;;;;;;0.00;0.00;;;;;10.53;83.69;99591.00;5036637;28;8881;-59
2022/12/25 09:14:31;;;;;;;;;1.00;1.00;;;;;10.55;83.56;99602.34;5038736;28;8922;-57
2022/12/25 09:16:59;;;;;;;;;2.00;0.25;;;;;10.57;83.99;99604.91;5038951;28;8855;-58
2022/12/25 09:19:27;;;;;;;;;2.00;2.00;;;;;10.61;83.06;99607.16;5038620;28;8833;-59
2022/12/25 09:21:55;;;;;;;;;1.00;0.25;;;;;10.64;83.65;99606.06;5038551;28;9518;-59
2022/12/25 09:24:23;;;;;;;;;1.00;1.00;;;;;10.68;82.97;99591.50;5038305;28;8813;-58
2022/12/25 09:26:50;;;;;;;;;1.50;0.50;;;;;10.72;83.37;99577.81;5038599;28;8879;-57
2022/12/25 09:29:18;;;;;;;;;1.00;1.00;;;;;10.76;83.56;99567.75;5038251;28;8908;-58
2022/12/25 09:31:46;;;;;;;;;0.50;0.50;;;;;10.78;83.65;99569.28;5038327;28;8837;-58
2022/12/25 09:34:16;;;;;;;;;1.00;1.00;;;;;10.81;83.13;99552.19;5037680;28;8858;-60
2022/12/25 09:36:45;;;;;;;;;0.50;0.50;;;;;10.83;83.05;99543.09;5037598;28;8837;-58
2022/12/25 09:39:13;;;;;;;;;1.00;1.00;;;;;10.82;83.33;99543.22;5037364;28;8819;-58
2022/12/25 09:41:41;;;;;;;;;0.00;0.00;;;;;10.77;83.02;99532.97;5037808;28;8955;-57
2022/12/25 09:44:08;;;;;;;;;0.00;0.00;;;;;10.74;83.12;99535.06;5037678;28;8843;-59
2022/12/25 09:46:36;;;;;;;;;0.00;0.00;;;;;10.70;83.46;99552.28;5037904;28;8983;-59
2022/12/25 09:49:04;;;;;;;;;1.00;1.00;;;;;10.67;83.55;99577.34;5038259;28;8845;-59
2022/12/25 09:51:32;;;;;;;;;4.00;4.00;;;;;10.64;83.71;99572.31;5037840;28;8832;-60
2022/12/25 09:53:59;;;;;;;;;0.25;0.25;;;;;10.60;83.37;99576.19;5037941;28;8944;-59
2022/12/25 09:56:28;;;;;;;;;1.50;1.00;;;;;10.61;83.91;99572.56;5025857;28;8826;-58
2022/12/25 09:58:56;;;;;;;;;3.00;3.00;;;;;10.60;83.66;99573.53;5038239;28;8849;-57
2022/12/25 10:01:24;;;;;;;;;2.50;1.00;;;;;10.58;84.00;99575.50;5037805;28;8949;-57
2022/12/25 10:03:52;;;;;;;;;0.75;0.75;;;;;10.55;83.98;99570.41;5038349;28;8845;-60
2022/12/25 10:06:20;;;;;;;;;0.50;0.50;;;;;10.56;83.98;99573.94;5037916;28;8834;-57
2022/12/25 10:08:47;;;;;;;;;0.75;0.00;;;;;10.54;83.60;99590.03;5037805;28;8833;-59
2022/12/25 10:11:16;;;;;;;;;0.50;0.50;;;;;10.50;84.28;99593.06;5037534;28;8845;-57
2022/12/25 10:13:44;;;;;;;;;0.00;0.00;;;;;10.45;84.31;99596.13;5038189;28;8956;-58
2022/12/25 10:16:11;;;;;;;;;0.25;0.25;;;;;10.42;84.13;99598.22;5037916;28;8971;-57
2022/12/25 10:18:39;;;;;;;;;0.50;0.50;;;;;10.39;84.36;99591.31;5037494;28;9477;-58
2022/12/25 10:21:07;;;;;;;;;0.00;0.00;;;;;10.37;84.05;99592.41;5037647;28;8893;-57
2022/12/25 10:23:40;;;;;;;;;1.00;0.00;;;;;10.35;84.84;99589.91;5036718;28;8848;-58
2022/12/25 10:26:07;;;;;;;;;1.00;1.00;;;;;10.34;84.45;99582.91;5037719;28;8844;-59
2022/12/25 10:28:35;;;;;;;;;1.00;1.00;;;;;10.33;84.32;99583.03;5037789;28;8952;-57
2022/12/25 10:31:03;;;;;;;;;1.00;1.00;;;;;10.33;84.74;99583.03;5037089;28;8880;-57
2022/12/25 10:33:31;;;;;;;;;0.00;0.00;;;;;10.32;84.65;99568.84;5037176;28;8919;-56
2022/12/25 10:35:59;;;;;;;;;1.00;1.00;;;;;10.32;84.63;99560.03;5037397;28;9534;-58
2022/12/25 10:38:27;;;;;;;;;0.25;0.00;;;;;10.31;84.44;99551.22;5037166;28;8856;-57
2022/12/25 10:40:55;;;;;;;;;0.00;0.00;;;;;10.32;84.76;99547.56;5035675;28;8853;-58
2022/12/25 10:43:23;;;;;;;;;0.00;0.00;;;;;10.33;85.11;99529.78;5037071;28;8884;-57
2022/12/25 10:45:50;;;;;;;;;0.00;0.00;;;;;10.34;85.06;99516.38;5036960;28;9610;-59
2022/12/25 10:48:19;;;;;;;;;0.00;0.00;;;;;10.38;85.06;99499.16;5037706;28;8837;-57
2022/12/25 10:50:47;;;;;;;;;0.00;0.00;;;;;10.41;85.21;99495.38;5037653;28;8903;-59
2022/12/25 10:53:15;;;;;;;;;0.25;0.25;;;;;10.43;84.83;99491.63;5037374;28;9795;-56
2022/12/25 10:55:43;;;;;;;;;0.75;0.75;;;;;10.43;84.94;99502.25;5036434;28;8828;-58
2022/12/25 10:58:11;;;;;;;;;0.00;0.00;;;;;10.46;84.96;99502.00;5037033;28;8835;-59
2022/12/25 11:00:39;;;;;;;;;0.00;0.00;;;;;10.46;84.87;99496.66;5036907;28;8947;-58
2022/12/25 11:03:07;;;;;;;;;1.00;1.00;;;;;10.48;84.88;99499.22;5036511;28;8860;-59
2022/12/25 11:05:35;;;;;;;;;0.00;0.00;;;;;10.49;84.55;99495.56;5036270;28;8847;-58
2022/12/25 11:08:03;;;;;;;;;0.00;0.00;;;;;10.48;84.79;99497.38;5036154;28;8844;-57
2022/12/25 11:10:31;;;;;;;;;0.00;0.00;;;;;10.48;84.66;99496.53;5035269;28;8845;-56
2022/12/25 11:12:59;;;;;;;;;0.00;0.00;;;;;10.49;84.98;99490.25;5035980;28;8859;-58
2022/12/25 11:15:27;;;;;;;;;0.00;0.00;;;;;10.48;84.86;99478.72;5036535;28;8829;-57
2022/12/25 11:17:55;;;;;;;;;1.00;1.00;;;;;10.48;84.75;99468.09;5036768;28;8875;-58
2022/12/25 11:20:23;;;;;;;;;0.00;0.00;;;;;10.47;85.02;99476.22;5036259;28;8836;-55
2022/12/25 11:22:50;;;;;;;;;0.00;0.00;;;;;10.46;85.26;99470.03;5035361;28;8911;-56
2022/12/25 11:25:20;;;;;;;;;0.00;0.00;;;;;10.46;85.72;99470.03;5035341;28;8845;-58
2022/12/25 11:27:48;;;;;;;;;0.00;0.00;;;;;10.46;85.38;99459.41;5035332;28;8847;-56
2022/12/25 11:30:20;;;;;;;;;0.00;0.00;;;;;10.48;85.40;99460.09;5035143;28;8930;-59
2022/12/25 11:32:47;;;;;;;;;0.00;0.00;;;;;10.48;85.42;99456.63;5035245;28;9169;-56
2022/12/25 11:35:15;;;;;;;;;0.00;0.00;;;;;10.50;85.56;99452.84;5034352;28;8856;-58
2022/12/25 11:37:44;;;;;;;;;0.00;0.00;;;;;10.52;85.05;99464.19;5034988;28;8840;-59
2022/12/25 11:40:12;;;;;;;;;0.00;0.00;;;;;10.55;85.44;99463.09;5035547;28;8820;-59
2022/12/25 11:42:40;;;;;;;;;1.00;0.00;;;;;10.56;84.89;99452.28;5034731;28;9765;-60
2022/12/25 11:45:08;;;;;;;;;0.00;0.00;;;;;10.59;85.14;99451.19;5034724;28;8866;-61
2022/12/25 11:47:35;;;;;;;;;0.00;0.00;;;;;10.60;85.43;99444.88;5034533;28;8922;-58
2022/12/25 11:50:04;;;;;;;;;0.75;0.75;;;;;10.61;84.82;99430.63;5035197;28;8837;-59
2022/12/25 11:52:32;;;;;;;;;0.00;0.00;;;;;10.61;85.17;99420.78;5035622;28;8894;-56
2022/12/25 11:54:59;;;;;;;;;0.00;0.00;;;;;10.62;84.75;99408.34;5034402;28;8934;-59
2022/12/25 11:57:27;;;;;;;;;0.25;0.00;;;;;10.64;84.58;99388.59;5034897;28;8958;-61
2022/12/25 11:59:55;;;;;;;;;0.00;0.00;;;;;10.68;84.93;99378.47;5036173;28;8820;-59
2022/12/25 12:02:23;;;;;;;;;0.00;0.00;;;;;10.70;85.04;99376.53;5036232;28;8916;-58
2022/12/25 12:04:51;;;;;;;;;0.00;0.00;;;;;10.72;84.95;99363.91;5036234;28;9498;-57
2022/12/25 12:07:19;;;;;;;;;0.00;0.00;;;;;10.74;84.73;99357.50;5036198;28;9554;-59
2022/12/25 12:09:47;;;;;;;;;0.00;0.00;;;;;10.76;84.88;99350.19;5036171;28;8828;-58
2022/12/25 12:12:15;;;;;;;;;0.00;0.00;;;;;10.80;84.47;99345.44;5036312;28;8864;-58
2022/12/25 12:14:43;;;;;;;;;0.00;0.00;;;;;10.81;84.95;99337.31;5035836;28;8956;-57
2022/12/25 12:17:11;;;;;;;;;0.00;0.00;;;;;10.85;84.70;99353.88;5035919;28;8876;-58
2022/12/25 12:19:39;;;;;;;;;0.00;0.00;;;;;10.86;84.75;99351.03;5035221;28;8824;-59
2022/12/25 12:22:07;;;;;;;;;0.25;0.25;;;;;10.86;84.90;99356.38;5035302;28;8955;-57
2022/12/25 12:24:35;;;;;;;;;0.00;0.00;;;;;10.87;84.82;99341.25;5034784;28;8813;-57
2022/12/25 12:27:04;;;;;;;;;0.00;0.00;;;;;10.87;84.58;99331.44;5034795;28;8860;-57
2022/12/25 12:29:32;;;;;;;;;0.00;0.00;;;;;10.88;84.72;99327.78;5035059;28;8852;-58
2022/12/25 12:32:00;;;;;;;;;0.00;0.00;;;;;10.89;85.11;99324.16;5034474;28;8840;-57
2022/12/25 12:34:28;;;;;;;;;0.00;0.00;;;;;10.90;84.99;99324.97;5034907;28;8918;-58
2022/12/25 12:36:56;;;;;;;;;0.00;0.00;;;;;10.92;84.38;99323.84;5035306;28;8872;-59
2022/12/25 12:39:24;;;;;;;;;0.00;0.00;;;;;10.94;84.75;99318.41;5035110;28;8891;-57
2022/12/25 12:41:52;;;;;;;;;0.00;0.00;;;;;10.97;84.77;99318.09;5034534;28;8836;-58
2022/12/25 12:44:21;;;;;;;;;0.00;0.00;;;;;10.97;84.69;99313.63;5035226;28;8829;-59
2022/12/25 12:46:49;;;;;;;;;0.00;0.00;;;;;10.99;85.03;99305.50;5036139;28;8849;-58
2022/12/25 12:49:17;;;;;;;;;0.00;0.00;;;;;10.98;84.70;99312.66;5039124;28;8832;-59
2022/12/25 12:51:45;;;;;;;;;0.00;0.00;;;;;10.97;84.46;99302.97;5039464;28;8966;-57
2022/12/25 12:54:13;;;;;;;;;0.75;0.00;;;;;10.96;84.52;99309.28;5038885;28;8805;-58
2022/12/25 12:56:40;;;;;;;;;0.00;0.00;;;;;10.95;85.18;99315.59;5038680;28;9530;-58
2022/12/25 12:59:08;;;;;;;;;0.00;0.00;;;;;10.92;85.26;99297.22;5038929;28;9705;-56
2022/12/25 13:01:36;;;;;;;;;0.50;0.50;;;;;10.91;84.77;99295.53;5038904;28;8828;-59
2022/12/25 13:04:05;;;;;;;;;0.25;0.00;;;;;10.90;85.04;99293.88;5038473;28;8836;-57
2022/12/25 13:06:32;;;;;;;;;0.00;0.00;;;;;10.89;85.43;99278.88;5037590;28;9623;-57
2022/12/25 13:09:00;;;;;;;;;1.00;1.00;;;;;10.89;85.23;99292.19;5037660;28;8852;-57
2022/12/25 13:11:28;;;;;;;;;0.00;0.00;;;;;10.90;84.83;99275.22;5037484;28;8848;-58
2022/12/25 13:13:56;;;;;;;;;1.00;0.00;;;;;10.92;85.13;99281.22;5038767;28;8860;-57
2022/12/25 13:16:24;;;;;;;;;1.00;0.50;;;;;10.93;85.40;99282.91;5038712;28;8836;-58
2022/12/25 13:18:52;;;;;;;;;3.00;1.50;;;;;10.93;84.99;99284.75;5038505;28;8963;-58
2022/12/25 13:21:20;;;;;;;;;0.25;0.25;;;;;10.93;85.23;99274.09;5038031;28;8922;-57
2022/12/25 13:23:48;;;;;;;;;1.00;0.00;;;;;10.94;85.35;99271.28;5038030;28;8817;-57
2022/12/25 13:26:16;;;;;;;;;0.75;0.75;;;;;10.95;84.96;99265.00;5038188;28;8866;-57
2022/12/25 13:28:44;;;;;;;;;1.00;1.00;;;;;10.99;84.87;99268.22;5038630;28;8872;-60
2022/12/25 13:31:12;;;;;;;;;3.75;3.00;;;;;10.99;84.85;99261.03;5037980;28;9518;-57
2022/12/25 13:33:40;;;;;;;;;0.00;0.00;;;;;11.02;85.16;99265.25;5037497;28;8916;-59
2022/12/25 13:36:08;;;;;;;;;3.00;2.00;;;;;11.03;84.74;99257.13;5037693;28;8840;-59
2022/12/25 13:38:36;;;;;;;;;4.00;3.00;;;;;11.06;84.65;99253.34;5037356;28;8836;-58
2022/12/25 13:43:49;;;;;;;;;4.00;3.00;;;;;11.09;85.04;99237.88;5036419;28;9729;-58
2022/12/25 13:46:17;;;;;;;;;3.75;3.50;;;;;11.13;85.41;99238.44;5036606;28;8856;-57